Time;durP1;ratioP1;P1;durP2;ratioP2;P2;SDS_P1;SDS_P2;PMS_P1;PMS_P2;Temp;Humidity;BMP_temperature;BMP_pressure;BME280_temperature;BME280_humidity;BME280_pressure;Samples;Min_cycle;Max_cycle;Signal;HPM_P1;HPM_P2
2022/11/04 00:02:16;;;;;;;3.73;2.33;;;10.10;99.90;;;;;;5138018;28;20505;-64
2022/11/04 00:04:45;;;;;;;4.13;2.40;;;10.10;99.90;;;;;;5138663;27;20923;-64
2022/11/04 00:09:59;;;;;;;3.23;2.37;;;10.00;99.90;;;;;;5141412;27;20412;-64
2022/11/04 00:12:25;;;;;;;5.03;2.37;;;10.00;99.90;;;;;;5141384;27;20485;-64
2022/11/04 00:14:53;;;;;;;3.87;2.67;;;10.00;99.90;;;;;;5141682;27;20458;-64
2022/11/04 00:17:39;;;;;;;2.67;1.80;;;9.90;99.90;;;;;;5141553;27;20446;-64
2022/11/04 00:28:44;;;;;;;4.43;2.60;;;9.70;99.90;;;;;;5119824;27;20421;-64
2022/11/04 00:34:00;;;;;;;3.50;2.40;;;9.60;99.90;;;;;;5140386;27;20910;-64
2022/11/04 00:36:29;;;;;;;4.10;2.03;;;9.50;99.90;;;;;;5141180;27;20461;-64
2022/11/04 00:38:57;;;;;;;2.97;2.00;;;9.50;98.00;;;;;;5141088;27;20465;-64
2022/11/04 00:41:27;;;;;;;2.57;1.83;;;9.50;35.50;;;;;;5124149;27;20440;-64
2022/11/04 00:43:55;;;;;;;3.63;2.10;;;9.50;47.70;;;;;;5120979;28;20867;-64
2022/11/04 00:46:26;;;;;;;2.43;1.80;;;9.50;29.10;;;;;;5120159;28;20538;-64
2022/11/04 00:48:55;;;;;;;2.83;2.53;;;9.50;60.10;;;;;;5120219;28;20818;-65
2022/11/04 00:51:25;;;;;;;2.67;2.20;;;9.60;99.90;;;;;;5131103;27;20911;-64
2022/11/04 00:53:54;;;;;;;4.20;2.63;;;9.60;99.90;;;;;;5140923;27;20442;-64
2022/11/04 00:56:21;;;;;;;3.03;2.30;;;9.60;99.90;;;;;;5139346;27;20966;-64
2022/11/04 00:58:49;;;;;;;3.97;2.60;;;9.60;99.90;;;;;;5140570;27;20433;-64
2022/11/04 01:01:18;;;;;;;3.50;2.77;;;9.60;99.90;;;;;;5132745;27;20464;-65
2022/11/04 01:03:45;;;;;;;3.17;2.50;;;9.60;99.90;;;;;;5120388;28;20550;-64
2022/11/04 01:06:16;;;;;;;3.87;3.47;;;9.70;99.90;;;;;;5119713;28;20515;-65
2022/11/04 01:08:43;;;;;;;4.70;3.13;;;9.60;99.90;;;;;;5133679;27;20528;-64
2022/11/04 01:11:15;;;;;;;5.00;3.60;;;9.70;99.90;;;;;;5140416;27;20505;-65
2022/11/04 01:13:45;;;;;;;4.47;3.37;;;9.70;99.90;;;;;;5139907;27;20560;-65
2022/11/04 01:16:12;;;;;;;4.90;3.90;;;9.70;99.90;;;;;;5139447;27;20490;-64
2022/11/04 01:18:42;;;;;;;4.10;3.70;;;9.70;99.90;;;;;;5129779;27;20459;-63
2022/11/04 01:21:12;;;;;;;5.23;4.20;;;9.80;99.90;;;;;;5119483;28;20549;-65
2022/11/04 01:23:40;;;;;;;4.83;4.33;;;9.80;56.30;;;;;;5120822;27;20471;-64
2022/11/04 01:26:08;;;;;;;5.63;3.97;;;9.80;1.00;;;;;;5119705;28;20435;-65
2022/11/04 01:28:37;;;;;;;5.20;3.80;;;9.80;1.00;;;;;;5123198;27;20761;-64
2022/11/04 01:31:06;;;;;;;5.70;5.03;;;9.70;1.00;;;;;;5139636;27;20445;-65
2022/11/04 01:33:33;;;;;;;5.60;4.27;;;9.80;5.00;;;;;;5140379;27;20564;-64
2022/11/04 01:36:00;;;;;;;5.40;4.50;;;9.80;18.60;;;;;;5140008;27;20465;-63
2022/11/04 01:38:31;;;;;;;8.70;4.47;;;9.80;99.90;;;;;;5138906;27;20491;-63
2022/11/04 01:40:59;;;;;;;6.87;4.83;;;9.80;99.90;;;;;;5119713;28;20472;-64
2022/11/04 01:43:46;;;;;;;6.53;5.20;;;9.70;99.90;;;;;;5119148;28;20434;-63
2022/11/04 01:46:31;;;;;;;6.73;6.03;;;9.80;99.90;;;;;;5119428;28;20944;-63
2022/11/04 01:49:04;;;;;;;7.80;7.00;;;9.70;99.90;;;;;;5118462;28;20888;-63
2022/11/04 01:51:34;;;;;;;8.00;7.20;;;9.80;99.90;;;;;;5119051;28;20463;-63
2022/11/04 01:54:03;;;;;;;10.60;7.40;;;9.70;99.90;;;;;;5122595;27;20894;-63
2022/11/04 01:56:30;;;;;;;8.17;6.33;;;9.80;99.90;;;;;;5139352;27;20486;-63
2022/11/04 01:59:05;;;;;;;7.23;6.30;;;9.70;99.90;;;;;;5138812;27;20525;-63
2022/11/04 02:01:36;;;;;;;8.83;6.70;;;9.80;99.90;;;;;;5139720;27;20436;-63
2022/11/04 02:06:46;;;;;;;6.20;5.60;;;9.80;99.90;;;;;;5118073;28;20444;-63
2022/11/04 02:09:15;;;;;;;8.60;5.83;;;9.80;80.20;;;;;;5118129;28;20430;-63
2022/11/04 02:14:27;;;;;;;7.70;6.27;;;9.80;27.00;;;;;;5117696;28;20910;-63
2022/11/04 02:17:02;;;;;;;6.30;5.57;;;9.80;91.50;;;;;;5118121;28;20462;-62
2022/11/04 02:19:49;;;;;;;7.13;6.37;;;9.70;97.70;;;;;;5118802;28;20466;-63
2022/11/04 02:22:45;;;;;;;6.27;5.63;;;9.70;99.90;;;;;;5118615;28;20858;-63
2022/11/04 02:25:31;;;;;;;9.40;6.23;;;9.70;99.90;;;;;;5119552;27;20466;-63
2022/11/04 02:28:39;;;;;;;5.73;4.83;;;9.70;99.90;;;;;;5137815;27;20451;-64
2022/11/04 02:31:19;;;;;;;7.33;5.50;;;9.70;99.90;;;;;;5072213;27;20433;-64
2022/11/04 02:33:51;;;;;;;8.60;6.50;;;9.70;99.90;;;;;;5138973;27;20527;-64
2022/11/04 02:36:25;;;;;;;8.40;5.50;;;9.70;99.90;;;;;;5138208;27;20486;-64
2022/11/04 02:38:56;;;;;;;6.80;5.67;;;9.70;99.90;;;;;;5136797;27;20752;-64
2022/11/04 02:41:34;;;;;;;5.73;4.90;;;9.70;90.80;;;;;;5138710;27;20462;-64
2022/11/04 02:44:12;;;;;;;7.00;4.80;;;9.70;97.10;;;;;;5139092;27;20458;-64
2022/11/04 02:46:49;;;;;;;5.57;4.93;;;9.70;20.10;;;;;;5123126;27;20451;-64
2022/11/04 02:49:22;;;;;;;5.90;4.80;;;9.70;5.60;;;;;;5118140;28;20463;-64
2022/11/04 02:51:54;;;;;;;5.40;4.80;;;9.60;3.80;;;;;;5118180;28;20464;-64
2022/11/04 02:54:25;;;;;;;5.83;5.17;;;9.60;14.70;;;;;;5117442;28;20469;-64
2022/11/04 02:56:56;;;;;;;6.00;5.10;;;9.70;28.10;;;;;;5129604;27;20520;-64
2022/11/04 02:59:29;;;;;;;8.10;4.73;;;9.60;49.30;;;;;;5138509;27;20865;-64
2022/11/04 03:02:00;;;;;;;7.20;4.90;;;9.50;50.30;;;;;;5138019;27;20465;-63
2022/11/04 03:04:31;;;;;;;6.73;4.23;;;9.40;91.60;;;;;;5138034;27;20440;-64
2022/11/04 03:07:02;;;;;;;4.63;4.13;;;9.40;54.30;;;;;;5128277;27;20692;-64
2022/11/04 03:09:32;;;;;;;5.43;4.47;;;9.30;92.40;;;;;;5118152;28;20911;-64
2022/11/04 03:12:04;;;;;;;6.23;3.67;;;9.30;87.40;;;;;;5117980;28;20487;-64
2022/11/04 03:14:37;;;;;;;7.13;3.57;;;9.30;99.90;;;;;;5117900;28;20481;-64
2022/11/04 03:17:14;;;;;;;5.33;3.40;;;9.20;99.90;;;;;;5123231;28;20493;-64
2022/11/04 03:19:47;;;;;;;5.17;3.77;;;9.20;99.90;;;;;;5136556;28;20733;-64
2022/11/04 03:22:17;;;;;;;6.27;3.30;;;9.20;99.90;;;;;;5138158;28;20467;-64
2022/11/04 03:24:47;;;;;;;4.57;3.90;;;9.20;99.90;;;;;;5138188;27;20448;-64
2022/11/04 03:27:24;;;;;;;5.20;3.30;;;9.10;99.90;;;;;;5133695;28;20538;-64
2022/11/04 03:29:59;;;;;;;6.23;3.27;;;9.10;99.90;;;;;;5117236;28;20533;-65
2022/11/04 03:32:37;;;;;;;5.10;3.10;;;9.10;99.90;;;;;;5117495;28;20469;-64
2022/11/04 03:35:08;;;;;;;5.23;2.80;;;9.00;99.90;;;;;;5117550;28;20477;-64
2022/11/04 03:37:35;;;;;;;16.27;4.67;;;9.00;98.80;;;;;;5120395;28;20575;-64
2022/11/04 03:40:04;;;;;;;6.37;2.60;;;9.00;40.90;;;;;;5141423;27;20455;-64
2022/11/04 03:42:32;;;;;;;4.30;2.77;;;8.90;1.00;;;;;;5142311;27;20466;-64
2022/11/04 03:45:00;;;;;;;7.60;3.00;;;8.90;1.00;;;;;;5141911;27;20462;-64
2022/11/04 03:47:30;;;;;;;4.20;3.03;;;8.80;1.00;;;;;;5142172;27;20716;-64
2022/11/04 03:50:02;;;;;;;5.10;2.63;;;8.80;1.00;;;;;;5122223;27;20463;-64
2022/11/04 03:52:30;;;;;;;8.50;4.00;;;8.80;1.00;;;;;;5121086;28;20963;-64
2022/11/04 03:54:57;;;;;;;9.90;2.70;;;8.70;1.00;;;;;;5121461;28;20566;-64
2022/11/04 03:57:41;;;;;;;6.30;2.23;;;8.70;1.00;;;;;;5120647;28;20506;-64
2022/11/04 04:00:15;;;;;;;10.93;3.40;;;8.70;1.00;;;;;;5122103;27;20500;-64
2022/11/04 04:02:55;;;;;;;6.80;2.83;;;8.70;1.00;;;;;;5122051;27;20443;-64
2022/11/04 04:05:29;;;;;;;10.97;2.80;;;8.60;1.00;;;;;;5120743;28;20505;-64
2022/11/04 04:08:04;;;;;;;7.70;2.93;;;8.60;1.00;;;;;;5121233;28;20461;-64
2022/11/04 04:10:41;;;;;;;9.17;3.03;;;8.60;1.00;;;;;;5136767;27;20458;-64
2022/11/04 04:13:31;;;;;;;8.73;2.50;;;8.60;99.90;;;;;;5120903;28;20538;-64
2022/11/04 04:16:07;;;;;;;5.97;3.43;;;8.60;99.90;;;;;;5120915;27;20459;-64
2022/11/04 04:18:40;;;;;;;7.53;2.57;;;8.60;99.90;;;;;;5120848;28;20509;-64
2022/11/04 04:21:12;;;;;;;7.20;3.23;;;8.50;22.80;;;;;;5120140;28;20459;-64
2022/11/04 04:29:11;;;;;;;7.93;3.33;;;8.40;1.00;;;;;;5120287;28;20431;-64
2022/11/04 04:31:51;;;;;;;4.60;2.87;;;8.40;1.00;;;;;;5138425;27;20459;-64
2022/11/04 04:34:25;;;;;;;8.20;2.80;;;8.30;99.90;;;;;;5140960;27;20874;-64
2022/11/04 04:36:58;;;;;;;7.23;3.23;;;8.30;1.00;;;;;;5140106;27;20482;-64
2022/11/04 04:45:05;;;;;;;8.20;3.03;;;8.20;1.00;;;;;;5120064;28;20431;-64
2022/11/04 04:47:45;;;;;;;6.60;3.10;;;8.10;1.00;;;;;;5120754;28;20497;-64
2022/11/04 04:50:16;;;;;;;5.87;2.77;;;8.10;88.90;;;;;;5119477;28;20455;-63
2022/11/04 04:52:46;;;;;;;7.60;3.67;;;8.20;99.90;;;;;;5138257;27;20466;-64
2022/11/04 04:55:17;;;;;;;10.40;3.23;;;8.20;1.00;;;;;;5140162;27;20502;-63
2022/11/04 04:57:47;;;;;;;6.33;3.33;;;8.20;1.00;;;;;;5141197;27;20486;-64
2022/11/04 05:00:17;;;;;;;5.77;3.07;;;8.20;54.50;;;;;;5140559;27;20469;-64
2022/11/04 05:02:45;;;;;;;6.30;3.13;;;8.20;99.90;;;;;;5139232;27;20459;-64
2022/11/04 05:05:14;;;;;;;4.90;2.73;;;8.10;99.90;;;;;;5139283;27;20938;-64
2022/11/04 05:07:46;;;;;;;16.70;3.13;;;8.20;99.90;;;;;;5139861;27;20447;-64
2022/11/04 05:10:16;;;;;;;6.87;3.30;;;8.20;99.90;;;;;;5138170;27;20808;-65
2022/11/04 05:15:29;;;;;;;8.77;2.87;;;8.20;99.90;;;;;;5126400;27;20413;-66
2022/11/04 05:17:58;;;;;;;6.53;3.30;;;8.30;34.40;;;;;;5139779;27;20527;-66
2022/11/04 05:20:27;;;;;;;10.40;3.50;;;8.30;1.00;;;;;;5139445;27;20421;-66
2022/11/04 05:22:57;;;;;;;6.90;3.37;;;8.30;1.00;;;;;;5139282;27;20466;-67
2022/11/04 05:25:25;;;;;;;8.13;2.90;;;8.30;1.00;;;;;;5140054;27;20888;-66
2022/11/04 05:27:52;;;;;;;11.23;3.33;;;8.30;1.00;;;;;;5125823;27;20527;-65
2022/11/04 05:30:19;;;;;;;6.13;3.13;;;8.20;99.90;;;;;;5121904;27;20983;-65
2022/11/04 05:32:47;;;;;;;5.43;2.97;;;8.20;99.90;;;;;;5139424;27;20741;-66
2022/11/04 05:35:14;;;;;;;4.90;3.57;;;8.20;99.90;;;;;;5140166;27;20843;-65
2022/11/04 05:37:42;;;;;;;7.73;4.33;;;8.20;99.90;;;;;;5140691;27;20457;-65
2022/11/04 05:40:11;;;;;;;10.03;3.80;;;8.10;82.30;;;;;;5140649;27;20543;-66
2022/11/04 05:42:38;;;;;;;7.27;3.83;;;8.10;50.70;;;;;;5140057;27;20512;-66
2022/11/04 05:45:08;;;;;;;7.17;3.20;;;8.10;1.00;;;;;;5120434;27;20444;-66
2022/11/04 05:47:36;;;;;;;5.83;3.20;;;8.10;1.00;;;;;;5120074;27;20451;-66
2022/11/04 05:50:03;;;;;;;8.97;3.50;;;8.10;1.00;;;;;;5120169;28;20452;-65
2022/11/04 05:52:32;;;;;;;9.30;3.43;;;8.10;1.00;;;;;;5119942;28;20469;-65
2022/11/04 05:55:01;;;;;;;10.00;3.87;;;8.10;1.00;;;;;;5119822;27;20890;-66
2022/11/04 05:57:28;;;;;;;6.37;3.70;;;8.00;1.00;;;;;;5137373;27;20489;-65
2022/11/04 05:59:55;;;;;;;6.70;3.20;;;7.90;99.90;;;;;;5140718;27;20505;-66
2022/11/04 06:02:22;;;;;;;6.23;3.33;;;7.80;1.00;;;;;;5140481;27;20480;-66
2022/11/04 06:04:50;;;;;;;6.53;3.10;;;7.80;99.90;;;;;;5139277;27;20550;-66
2022/11/04 06:07:17;;;;;;;4.27;3.17;;;7.70;1.00;;;;;;5140083;27;20465;-65
2022/11/04 06:09:47;;;;;;;6.50;3.50;;;7.70;62.90;;;;;;5139847;27;20785;-66
2022/11/04 06:12:17;;;;;;;12.00;3.87;;;7.70;99.90;;;;;;5138682;27;20458;-66
2022/11/04 06:14:45;;;;;;;5.63;3.27;;;7.70;99.90;;;;;;5139446;27;20469;-66
2022/11/04 06:17:14;;;;;;;6.67;3.47;;;7.80;99.90;;;;;;5139248;27;20457;-66
2022/11/04 06:19:42;;;;;;;7.10;3.50;;;7.70;99.90;;;;;;5138832;27;20426;-66
2022/11/04 06:22:11;;;;;;;8.13;3.90;;;7.70;99.90;;;;;;5139461;27;20950;-66
2022/11/04 06:24:38;;;;;;;5.80;3.77;;;7.70;99.90;;;;;;5138375;27;20494;-66
2022/11/04 06:27:05;;;;;;;12.03;3.90;;;7.70;99.90;;;;;;5138986;27;20455;-66
2022/11/04 06:29:35;;;;;;;6.67;3.43;;;7.70;99.90;;;;;;5138920;27;20433;-66
2022/11/04 06:32:02;;;;;;;7.83;4.20;;;7.70;99.90;;;;;;5138282;27;20459;-66
2022/11/04 06:34:32;;;;;;;7.57;3.43;;;7.70;99.90;;;;;;5137276;27;20454;-66
2022/11/04 06:37:02;;;;;;;4.23;3.57;;;7.80;99.90;;;;;;5121934;27;20824;-66
2022/11/04 06:39:29;;;;;;;10.30;3.97;;;7.70;99.90;;;;;;5137872;27;20433;-65
2022/11/04 06:41:56;;;;;;;8.83;3.93;;;7.70;99.90;;;;;;5138935;27;20553;-66
2022/11/04 06:44:24;;;;;;;7.67;3.60;;;7.70;99.90;;;;;;5136391;27;20745;-66
2022/11/04 06:46:55;;;;;;;7.50;4.00;;;7.80;99.90;;;;;;5137654;27;20496;-66
2022/11/04 06:49:25;;;;;;;8.40;4.57;;;7.80;99.90;;;;;;5124818;27;20550;-66
2022/11/04 06:51:54;;;;;;;6.07;3.90;;;7.90;99.90;;;;;;5117999;28;20543;-66
2022/11/04 06:54:21;;;;;;;5.60;3.70;;;7.90;99.90;;;;;;5118613;28;20888;-66
2022/11/04 06:56:51;;;;;;;9.07;3.70;;;7.90;99.90;;;;;;5118605;28;20460;-66
2022/11/04 06:59:20;;;;;;;6.70;3.97;;;7.90;99.90;;;;;;5124417;27;20955;-66
2022/11/04 07:01:49;;;;;;;7.70;3.97;;;7.90;99.90;;;;;;5137189;27;20756;-66
2022/11/04 07:04:18;;;;;;;8.80;4.10;;;7.90;99.90;;;;;;5138842;27;20481;-66
2022/11/04 07:06:45;;;;;;;9.23;4.57;;;8.00;99.90;;;;;;5096634;28;20427;-66
2022/11/04 07:09:14;;;;;;;5.47;3.87;;;8.10;99.90;;;;;;5088403;28;20514;-66
2022/11/04 07:11:42;;;;;;;10.10;4.27;;;8.10;99.90;;;;;;5077727;28;20504;-66
2022/11/04 07:14:10;;;;;;;6.50;4.37;;;8.10;99.90;;;;;;5077387;28;20480;-66
2022/11/04 07:16:40;;;;;;;7.20;3.83;;;8.20;99.90;;;;;;5077918;28;20477;-66
2022/11/04 07:19:10;;;;;;;7.70;4.23;;;8.20;99.90;;;;;;5077069;28;20486;-66
2022/11/04 07:21:39;;;;;;;8.97;4.80;;;8.30;99.90;;;;;;5077778;28;20468;-66
2022/11/04 07:24:07;;;;;;;8.97;3.90;;;8.30;99.90;;;;;;5084632;28;20460;-65
2022/11/04 07:26:34;;;;;;;7.00;4.00;;;8.40;99.90;;;;;;5095998;28;20439;-66
2022/11/04 07:29:01;;;;;;;8.60;3.97;;;8.50;99.90;;;;;;5097380;28;20457;-66
2022/11/04 07:31:30;;;;;;;6.50;3.43;;;8.50;99.90;;;;;;5097973;28;20890;-65
2022/11/04 07:33:57;;;;;;;6.13;3.23;;;8.50;99.90;;;;;;5095503;28;20461;-66
2022/11/04 07:36:24;;;;;;;10.27;3.47;;;8.60;99.90;;;;;;5077150;28;20471;-65
2022/11/04 07:38:54;;;;;;;6.70;3.43;;;8.60;99.90;;;;;;5078198;28;20482;-66
2022/11/04 07:41:22;;;;;;;4.17;3.40;;;8.70;99.90;;;;;;5077182;28;20461;-67
2022/11/04 07:43:50;;;;;;;12.40;5.50;;;8.80;99.90;;;;;;5077181;28;20503;-67
2022/11/04 07:46:18;;;;;;;6.40;3.60;;;8.90;99.90;;;;;;5094027;28;20468;-67
2022/11/04 07:48:45;;;;;;;4.60;3.03;;;9.00;60.00;;;;;;5097692;28;20457;-67
2022/11/04 07:51:18;;;;;;;6.93;3.47;;;9.00;1.00;;;;;;5097913;28;20456;-67
2022/11/04 07:53:45;;;;;;;7.40;2.40;;;9.00;94.20;;;;;;5097826;28;20488;-67
2022/11/04 07:56:14;;;;;;;6.03;3.00;;;9.10;1.00;;;;;;5084190;28;20466;-67
2022/11/04 07:58:42;;;;;;;6.07;3.20;;;9.30;1.00;;;;;;5077480;28;20566;-68
2022/11/04 08:01:12;;;;;;;6.73;2.90;;;9.30;99.90;;;;;;5077830;28;20730;-67
2022/11/04 08:03:40;;;;;;;3.47;2.50;;;9.20;1.00;;;;;;5077381;28;20934;-67
2022/11/04 08:06:09;;;;;;;3.87;2.53;;;9.40;99.90;;;;;;5125765;27;20505;-67
2022/11/04 08:08:36;;;;;;;6.10;2.77;;;9.40;99.90;;;;;;5138433;28;20469;-66
2022/11/04 08:11:08;;;;;;;6.77;3.30;;;9.60;99.90;;;;;;5137604;28;20437;-66
2022/11/04 08:13:37;;;;;;;5.93;3.80;;;9.60;1.00;;;;;;5138900;28;20437;-67
2022/11/04 08:16:08;;;;;;;8.90;4.17;;;9.70;1.00;;;;;;5133186;27;20836;-67
2022/11/04 08:18:35;;;;;;;7.53;3.10;;;9.80;1.00;;;;;;5117469;28;20466;-67
2022/11/04 08:21:03;;;;;;;5.33;3.00;;;10.00;1.00;;;;;;5126299;28;20459;-67
2022/11/04 08:23:31;;;;;;;5.03;2.73;;;10.10;1.00;;;;;;5137180;27;20465;-66
2022/11/04 08:25:59;;;;;;;6.43;2.23;;;10.10;1.00;;;;;;5138624;27;20562;-66
2022/11/04 08:28:28;;;;;;;4.73;3.17;;;10.20;99.90;;;;;;5122578;27;20454;-64
2022/11/04 08:31:00;;;;;;;5.70;3.20;;;10.20;99.90;;;;;;5139929;27;20429;-65
2022/11/04 08:33:29;;;;;;;6.70;3.33;;;10.20;99.90;;;;;;5141062;27;20462;-66
2022/11/04 08:36:03;;;;;;;3.83;3.17;;;10.00;1.00;;;;;;5141514;27;20459;-66
2022/11/04 08:38:30;;;;;;;6.27;3.10;;;10.10;94.40;;;;;;5124781;27;20497;-67
2022/11/04 08:40:58;;;;;;;7.57;3.03;;;10.10;99.90;;;;;;5120436;28;20509;-66
2022/11/04 08:43:26;;;;;;;8.70;3.00;;;10.20;99.90;;;;;;5120824;28;20487;-65
2022/11/04 08:45:53;;;;;;;5.80;2.70;;;10.20;99.90;;;;;;5121102;28;20439;-66
2022/11/04 08:48:22;;;;;;;6.80;3.10;;;10.20;47.10;;;;;;5130569;27;20461;-66
2022/11/04 08:50:49;;;;;;;5.73;2.70;;;10.20;15.00;;;;;;5136457;27;20469;-66
2022/11/04 08:53:22;;;;;;;6.53;3.03;;;10.20;99.90;;;;;;5123057;27;20471;-66
2022/11/04 08:55:49;;;;;;;9.80;3.50;;;10.20;99.90;;;;;;5120617;28;20559;-65
2022/11/04 08:58:17;;;;;;;9.50;3.30;;;10.20;99.90;;;;;;5134512;27;20484;-65
2022/11/04 09:00:48;;;;;;;3.23;2.40;;;10.10;99.90;;;;;;5141133;27;20461;-65
2022/11/04 09:03:15;;;;;;;5.47;3.50;;;10.10;99.90;;;;;;5123805;27;20479;-65
2022/11/04 09:05:47;;;;;;;12.60;3.50;;;10.10;99.90;;;;;;5139026;27;20460;-65
2022/11/04 09:08:19;;;;;;;5.37;2.73;;;10.10;1.00;;;;;;5138353;27;20488;-64
2022/11/04 09:10:48;;;;;;;6.67;2.60;;;10.10;1.00;;;;;;5139393;27;20553;-65
2022/11/04 09:13:16;;;;;;;5.73;2.70;;;10.10;99.90;;;;;;5139800;27;20548;-65
2022/11/04 09:15:47;;;;;;;5.17;2.50;;;10.00;99.90;;;;;;5139431;27;20545;-65
2022/11/04 09:18:18;;;;;;;5.20;2.93;;;10.10;1.00;;;;;;5135931;27;20880;-64
2022/11/04 09:20:47;;;;;;;5.50;2.60;;;10.10;99.90;;;;;;5131523;27;20478;-64
2022/11/04 09:23:14;;;;;;;6.27;3.90;;;10.20;99.90;;;;;;5119770;28;20464;-64
2022/11/04 09:25:41;;;;;;;7.53;3.37;;;10.30;99.90;;;;;;5120224;27;20468;-65
2022/11/04 09:28:10;;;;;;;6.63;3.10;;;10.40;99.90;;;;;;5119366;27;20460;-65
2022/11/04 09:30:43;;;;;;;9.00;3.77;;;10.50;99.90;;;;;;5118636;28;20532;-64
2022/11/04 09:33:10;;;;;;;6.73;2.80;;;10.50;99.90;;;;;;5118205;27;20914;-64
2022/11/04 09:35:38;;;;;;;6.50;3.30;;;10.60;99.90;;;;;;5122161;27;20451;-65
2022/11/04 09:38:09;;;;;;;6.27;3.40;;;10.70;1.00;;;;;;5139350;27;20437;-63
2022/11/04 09:40:39;;;;;;;4.10;2.43;;;10.90;1.00;;;;;;5120632;27;20482;-64
2022/11/04 09:43:20;;;;;;;4.40;2.60;;;11.00;1.00;;;;;;5119008;28;20533;-64
2022/11/04 09:45:47;;;;;;;6.77;2.80;;;11.10;1.00;;;;;;5131025;27;20429;-65
2022/11/04 09:48:24;;;;;;;5.03;3.07;;;11.30;1.00;;;;;;5139974;27;20488;-65
2022/11/04 09:50:57;;;;;;;5.53;3.07;;;11.50;99.90;;;;;;5138998;27;20462;-66
2022/11/04 09:53:30;;;;;;;9.50;3.57;;;11.60;99.90;;;;;;5137534;27;20558;-66
2022/11/04 09:56:03;;;;;;;4.30;2.20;;;11.70;99.90;;;;;;5119415;28;20503;-66
2022/11/04 09:58:37;;;;;;;2.70;2.13;;;11.70;99.90;;;;;;5119056;28;20487;-66
2022/11/04 10:01:13;;;;;;;6.63;2.97;;;11.50;99.90;;;;;;5132817;27;20459;-67
2022/11/04 10:03:58;;;;;;;6.17;2.50;;;11.30;53.60;;;;;;5139837;27;20481;-66
2022/11/04 10:06:35;;;;;;;4.67;2.40;;;11.30;90.50;;;;;;5138818;27;20490;-67
2022/11/04 10:09:16;;;;;;;9.30;3.30;;;11.40;97.20;;;;;;5122253;27;20537;-66
2022/11/04 10:11:54;;;;;;;5.10;2.40;;;11.60;99.80;;;;;;5139426;27;20530;-66
2022/11/04 10:14:48;;;;;;;8.30;3.00;;;11.80;50.00;;;;;;5139563;27;20803;-67
2022/11/04 10:17:32;;;;;;;6.50;2.60;;;12.30;8.70;;;;;;5092447;27;20458;-67
2022/11/04 10:20:22;;;;;;;3.50;2.80;;;12.70;1.00;;;;;;5118843;28;20577;-67
2022/11/04 10:22:59;;;;;;;7.57;2.97;;;12.70;1.00;;;;;;5118312;28;20779;-67
2022/11/04 10:25:34;;;;;;;6.87;2.90;;;12.60;1.00;;;;;;5118775;28;20459;-67
2022/11/04 10:28:05;;;;;;;4.97;2.43;;;12.60;1.00;;;;;;5120994;27;20459;-67
2022/11/04 10:30:37;;;;;;;4.70;2.80;;;12.50;1.00;;;;;;5134859;27;20433;-67
2022/11/04 10:33:11;;;;;;;5.47;2.97;;;12.60;1.00;;;;;;5136997;27;20462;-67
2022/11/04 10:35:44;;;;;;;4.77;2.87;;;12.70;1.00;;;;;;5121625;27;20466;-67
2022/11/04 10:38:18;;;;;;;4.53;2.50;;;12.80;1.00;;;;;;5126603;27;20450;-66
2022/11/04 10:40:49;;;;;;;5.00;2.77;;;13.00;1.00;;;;;;5130447;27;20479;-66
2022/11/04 10:43:29;;;;;;;5.00;2.40;;;13.30;1.00;;;;;;5122373;27;20459;-66
2022/11/04 10:46:11;;;;;;;5.70;3.33;;;13.60;1.00;;;;;;5117052;28;20953;-66
2022/11/04 10:48:49;;;;;;;9.80;2.87;;;13.80;1.00;;;;;;5116671;28;20474;-66
2022/11/04 10:51:20;;;;;;;12.40;3.73;;;14.00;1.00;;;;;;5117270;27;20441;-66
2022/11/04 10:53:48;;;;;;;6.90;2.70;;;13.70;1.00;;;;;;5117779;28;20467;-66
2022/11/04 10:56:22;;;;;;;5.77;2.90;;;13.60;1.00;;;;;;5133025;27;20755;-65
2022/11/04 10:58:55;;;;;;;7.50;2.60;;;13.40;1.00;;;;;;5133714;27;20490;-66
2022/11/04 11:01:28;;;;;;;3.47;2.17;;;13.10;1.00;;;;;;5138080;27;20437;-65
2022/11/04 11:03:56;;;;;;;7.30;2.80;;;12.80;1.00;;;;;;5137784;27;20502;-65
2022/11/04 11:06:27;;;;;;;5.63;2.50;;;12.50;1.00;;;;;;5135722;27;20468;-65
2022/11/04 11:09:02;;;;;;;6.27;2.50;;;12.60;1.00;;;;;;5137837;27;20958;-65
2022/11/04 11:11:44;;;;;;;5.90;2.60;;;12.60;1.00;;;;;;5138713;27;20549;-65
2022/11/04 11:14:19;;;;;;;7.03;3.40;;;12.70;1.00;;;;;;5137761;27;20496;-65
2022/11/04 11:16:47;;;;;;;4.27;2.73;;;12.80;1.00;;;;;;5135764;27;20458;-65
2022/11/04 11:19:18;;;;;;;4.30;2.60;;;12.80;1.00;;;;;;5137845;27;20539;-65
2022/11/04 11:21:48;;;;;;;4.03;2.60;;;12.90;1.00;;;;;;5137224;28;20490;-65
2022/11/04 11:24:22;;;;;;;5.47;2.70;;;12.80;1.00;;;;;;5137989;28;20458;-65
2022/11/04 11:26:53;;;;;;;3.60;2.10;;;12.90;1.00;;;;;;5135751;28;20436;-64
2022/11/04 11:29:24;;;;;;;5.90;2.80;;;12.80;1.00;;;;;;5136601;27;20545;-64
2022/11/04 11:31:53;;;;;;;4.10;2.53;;;12.90;1.00;;;;;;5137238;27;20458;-64
2022/11/04 11:34:26;;;;;;;5.53;2.90;;;12.70;1.00;;;;;;5137896;28;20459;-65
2022/11/04 11:36:55;;;;;;;3.63;2.47;;;12.80;1.00;;;;;;5131360;28;20467;-65
2022/11/04 11:39:29;;;;;;;7.80;2.90;;;12.60;1.00;;;;;;5116973;28;20928;-64
2022/11/04 11:42:05;;;;;;;8.70;3.40;;;12.60;1.00;;;;;;5117907;28;20459;-64
2022/11/04 11:44:37;;;;;;;6.33;2.60;;;12.60;1.00;;;;;;5117307;28;20521;-64
2022/11/04 11:47:06;;;;;;;6.40;3.13;;;12.60;1.00;;;;;;5117255;28;20498;-64
2022/11/04 11:49:38;;;;;;;9.33;3.20;;;12.60;1.00;;;;;;5117782;28;20463;-64
2022/11/04 11:52:32;;;;;;;7.40;3.30;;;12.50;1.00;;;;;;5117554;28;20466;-64
2022/11/04 11:55:06;;;;;;;7.30;3.10;;;12.40;1.00;;;;;;5033956;28;20470;-64
2022/11/04 11:57:45;;;;;;;5.97;2.93;;;12.40;1.00;;;;;;5116078;28;20967;-64
2022/11/04 12:00:17;;;;;;;4.03;2.80;;;12.30;1.00;;;;;;5119598;28;20487;-64
2022/11/04 12:02:54;;;;;;;7.30;3.70;;;12.20;1.00;;;;;;5120763;28;20483;-64
2022/11/04 12:05:28;;;;;;;6.00;3.53;;;12.20;1.00;;;;;;5125953;27;20472;-64
2022/11/04 12:08:06;;;;;;;5.37;3.70;;;12.10;1.00;;;;;;5139606;27;20548;-65
2022/11/04 12:10:42;;;;;;;5.10;3.47;;;11.90;1.00;;;;;;5137939;27;20490;-65
2022/11/04 12:13:21;;;;;;;10.23;4.80;;;11.90;1.00;;;;;;5141907;27;20458;-66
2022/11/04 12:16:04;;;;;;;6.43;3.53;;;11.90;1.00;;;;;;5137579;27;20470;-66
2022/11/04 12:19:00;;;;;;;7.10;4.07;;;11.80;1.00;;;;;;5119210;27;20499;-66
2022/11/04 12:21:33;;;;;;;6.47;3.43;;;11.70;1.00;;;;;;5122168;27;20559;-66
2022/11/04 12:24:14;;;;;;;8.03;3.77;;;11.70;1.00;;;;;;5119710;28;20866;-66
2022/11/04 12:26:53;;;;;;;7.00;3.60;;;11.60;1.00;;;;;;5119249;28;20456;-67
2022/11/04 12:29:50;;;;;;;4.67;3.60;;;11.70;1.00;;;;;;5128814;27;20478;-67
2022/11/04 12:32:28;;;;;;;4.50;3.33;;;11.70;1.00;;;;;;5120721;28;20795;-67
2022/11/04 12:35:12;;;;;;;5.80;3.83;;;11.80;1.00;;;;;;5119548;28;20434;-67
2022/11/04 12:37:52;;;;;;;4.43;2.80;;;12.00;1.00;;;;;;5120912;28;20555;-67
2022/11/04 12:40:22;;;;;;;6.73;3.83;;;12.10;1.00;;;;;;5121496;27;20919;-67
2022/11/04 12:43:10;;;;;;;10.10;3.90;;;12.20;1.00;;;;;;5120607;28;20461;-67
2022/11/04 12:45:54;;;;;;;12.67;4.33;;;12.30;1.00;;;;;;5121732;27;20463;-67
2022/11/04 12:48:37;;;;;;;7.60;3.87;;;12.50;1.00;;;;;;5121012;27;20875;-66
2022/11/04 12:51:16;;;;;;;11.83;3.93;;;12.40;1.00;;;;;;5120187;27;20546;-65
2022/11/04 12:54:07;;;;;;;7.83;3.50;;;12.50;1.00;;;;;;5120492;28;20438;-65
2022/11/04 12:56:40;;;;;;;6.83;3.50;;;12.70;1.00;;;;;;5119752;27;20438;-65
2022/11/04 12:59:34;;;;;;;5.53;3.40;;;12.90;1.00;;;;;;5137924;27;20492;-65
2022/11/04 13:02:14;;;;;;;7.13;3.43;;;12.90;1.00;;;;;;5137964;27;20456;-65
2022/11/04 13:04:52;;;;;;;8.30;3.40;;;13.00;1.00;;;;;;5139589;27;20538;-65
2022/11/04 13:07:26;;;;;;;7.47;3.47;;;12.90;1.00;;;;;;5139827;27;20432;-65
2022/11/04 13:09:56;;;;;;;9.13;4.17;;;13.10;1.00;;;;;;5140233;27;20507;-65
2022/11/04 13:12:30;;;;;;;6.63;4.20;;;13.10;1.00;;;;;;5135696;27;20509;-65
2022/11/04 13:15:03;;;;;;;6.50;3.80;;;13.10;1.00;;;;;;5119452;28;20460;-65
2022/11/04 13:17:35;;;;;;;6.20;3.87;;;13.00;1.00;;;;;;5125619;27;20458;-64
2022/11/04 13:20:14;;;;;;;8.70;4.27;;;13.10;1.00;;;;;;5139562;27;20487;-64
2022/11/04 13:22:45;;;;;;;6.07;3.63;;;13.30;1.00;;;;;;5139153;27;20824;-64
2022/11/04 13:25:20;;;;;;;9.17;4.10;;;13.50;1.00;;;;;;5139791;27;20914;-64
2022/11/04 13:27:48;;;;;;;13.80;4.73;;;13.50;1.00;;;;;;5136602;27;20482;-64
2022/11/04 13:30:25;;;;;;;7.80;4.10;;;13.40;1.00;;;;;;5138398;27;20478;-64
2022/11/04 13:33:02;;;;;;;6.57;3.10;;;13.30;1.00;;;;;;5139813;27;20456;-64
2022/11/04 13:35:40;;;;;;;10.27;3.00;;;13.20;1.00;;;;;;5140067;27;20736;-64
2022/11/04 13:38:14;;;;;;;7.87;4.23;;;13.10;1.00;;;;;;5136422;27;20558;-64
2022/11/04 13:40:52;;;;;;;8.60;5.27;;;13.10;1.00;;;;;;5118914;28;20498;-64
2022/11/04 13:43:40;;;;;;;8.10;3.83;;;13.00;1.00;;;;;;5128976;27;20905;-64
2022/11/04 13:46:22;;;;;;;5.33;3.37;;;12.90;1.00;;;;;;5140161;27;20458;-64
2022/11/04 13:49:04;;;;;;;7.70;3.60;;;12.90;1.00;;;;;;5134494;27;20777;-63
2022/11/04 13:51:37;;;;;;;5.43;3.30;;;12.80;1.00;;;;;;5119081;28;20960;-64
2022/11/04 13:54:23;;;;;;;9.10;3.50;;;12.80;1.00;;;;;;5119075;28;20459;-63
2022/11/04 13:57:04;;;;;;;5.67;3.50;;;12.70;1.00;;;;;;5118755;28;20434;-63